createdAt,value
2023-07-18T00:00:38.850Z,14.50
2023-07-18T00:03:07.218Z,14.50
2023-07-18T00:05:35.390Z,14.40
2023-07-18T00:08:03.396Z,14.40
2023-07-18T00:10:31.403Z,14.40
2023-07-18T00:12:59.773Z,14.40
2023-07-18T00:15:41.835Z,14.40
2023-07-18T00:18:12.082Z,14.40
2023-07-18T00:20:40.199Z,14.40
2023-07-18T00:23:11.075Z,14.30
2023-07-18T00:25:40.093Z,14.30
2023-07-18T00:28:10.244Z,14.30
2023-07-18T00:30:38.271Z,14.30
2023-07-18T00:33:06.302Z,14.30
2023-07-18T00:35:35.870Z,14.30
2023-07-18T00:38:04.068Z,14.20
2023-07-18T00:40:32.161Z,14.20
2023-07-18T00:43:00.159Z,14.20
2023-07-18T00:45:28.298Z,14.20
2023-07-18T00:47:56.438Z,14.20
2023-07-18T00:50:24.603Z,14.20
2023-07-18T00:52:55.030Z,14.30
2023-07-18T00:55:23.116Z,14.10
2023-07-18T00:57:51.717Z,14.10
2023-07-18T01:00:23.693Z,14.10
2023-07-18T01:02:52.433Z,14.10
2023-07-18T01:05:20.891Z,14.10
2023-07-18T01:07:49.478Z,14.10
2023-07-18T01:10:19.709Z,14.00
2023-07-18T01:12:47.820Z,14.00
2023-07-18T01:15:15.829Z,14.00
2023-07-18T01:17:44.445Z,13.90
2023-07-18T01:20:16.734Z,13.90
2023-07-18T01:22:46.876Z,13.90
2023-07-18T01:25:17.620Z,13.90
2023-07-18T01:27:45.778Z,13.90
2023-07-18T01:30:14.192Z,14.50
2023-07-18T01:32:43.217Z,13.80
2023-07-18T01:35:11.824Z,13.80
2023-07-18T01:37:40.180Z,13.80
2023-07-18T01:40:13.314Z,13.80
2023-07-18T01:42:41.667Z,13.80
2023-07-18T01:45:10.104Z,13.80
2023-07-18T01:47:38.448Z,13.80
2023-07-18T01:50:07.464Z,13.70
2023-07-18T01:52:35.716Z,13.70
2023-07-18T01:55:05.038Z,13.70
2023-07-18T01:57:44.434Z,13.60
2023-07-18T02:00:13.677Z,13.60
2023-07-18T02:02:49.987Z,13.60
2023-07-18T02:05:19.543Z,13.60
2023-07-18T02:07:48.773Z,13.60
2023-07-18T02:10:17.990Z,13.60
2023-07-18T02:12:47.537Z,13.50
2023-07-18T02:15:15.539Z,13.50
2023-07-18T02:17:44.378Z,13.50
2023-07-18T02:20:15.271Z,13.50
2023-07-18T02:22:44.794Z,13.50
2023-07-18T02:25:13.289Z,13.50
2023-07-18T02:27:42.256Z,13.50
2023-07-18T02:30:12.913Z,13.50
2023-07-18T02:32:41.798Z,13.50
2023-07-18T02:35:11.213Z,13.50
2023-07-18T02:37:39.625Z,13.50
2023-07-18T02:40:11.004Z,13.50
2023-07-18T02:42:40.612Z,13.50
2023-07-18T02:45:10.032Z,13.50
2023-07-18T02:47:40.330Z,13.50
2023-07-18T02:50:09.131Z,13.40
2023-07-18T02:52:37.344Z,13.40
2023-07-18T02:55:05.732Z,13.40
2023-07-18T02:57:34.181Z,13.40
2023-07-18T03:00:02.333Z,13.40
2023-07-18T03:02:32.831Z,13.30
2023-07-18T03:05:02.239Z,13.30
2023-07-18T03:07:30.300Z,13.30
2023-07-18T03:09:58.713Z,13.30
2023-07-18T03:12:26.770Z,13.30
2023-07-18T03:14:54.781Z,13.30
2023-07-18T03:17:24.429Z,13.30
2023-07-18T03:19:52.511Z,13.30
2023-07-18T03:22:22.221Z,13.20
2023-07-18T03:24:50.896Z,13.30
2023-07-18T03:27:19.339Z,13.20
2023-07-18T03:29:47.319Z,13.20
2023-07-18T03:32:15.463Z,13.20
2023-07-18T03:34:43.510Z,13.20
2023-07-18T03:37:11.493Z,13.20
2023-07-18T03:39:41.647Z,13.20
2023-07-18T03:42:09.719Z,13.20
2023-07-18T03:44:37.780Z,13.10
2023-07-18T03:47:19.305Z,13.10
2023-07-18T03:49:49.207Z,13.10
2023-07-18T03:52:17.523Z,13.10
2023-07-18T03:54:47.277Z,13.10
2023-07-18T03:57:15.596Z,13.10
2023-07-18T03:59:43.711Z,13.10
2023-07-18T04:02:13.349Z,13.10
2023-07-18T04:04:42.457Z,13.10
2023-07-18T04:07:10.710Z,13.10
2023-07-18T04:09:38.709Z,13.10
2023-07-18T04:12:09.168Z,13.10
2023-07-18T04:14:37.510Z,13.10
2023-07-18T04:17:06.015Z,13.10
2023-07-18T04:19:34.045Z,13.10
2023-07-18T04:22:02.062Z,13.10
2023-07-18T04:24:32.403Z,13.10
2023-07-18T04:27:00.479Z,13.10
2023-07-18T04:29:29.898Z,13.10
2023-07-18T04:31:57.892Z,13.10
2023-07-18T04:34:26.428Z,13.20
2023-07-18T04:36:54.411Z,13.20
2023-07-18T04:39:22.420Z,13.20
2023-07-18T04:41:55.620Z,13.20
2023-07-18T04:44:24.343Z,13.20
2023-07-18T04:46:54.847Z,13.20
2023-07-18T04:49:26.044Z,13.30
2023-07-18T04:51:54.289Z,13.30
2023-07-18T04:54:22.414Z,13.30
2023-07-18T04:56:54.607Z,13.30
2023-07-18T04:59:23.388Z,13.30
2023-07-18T05:01:55.344Z,13.30
2023-07-18T05:04:23.769Z,13.30
2023-07-18T05:06:51.974Z,14.00
2023-07-18T05:09:20.024Z,13.60
2023-07-18T05:12:02.309Z,13.40
2023-07-18T05:14:30.386Z,13.40
2023-07-18T05:16:59.718Z,13.40
2023-07-18T05:19:27.763Z,13.50
2023-07-18T05:21:55.777Z,13.50
2023-07-18T05:24:23.785Z,13.50
2023-07-18T05:26:51.780Z,13.60
2023-07-18T05:29:19.793Z,13.60
2023-07-18T05:31:47.817Z,13.60
2023-07-18T05:34:17.225Z,13.70
2023-07-18T05:36:45.263Z,13.70
2023-07-18T05:39:13.258Z,13.70
2023-07-18T05:41:41.819Z,13.80
2023-07-18T05:44:11.279Z,13.80
2023-07-18T05:46:41.291Z,13.80
2023-07-18T05:49:09.691Z,13.90
2023-07-18T05:51:39.196Z,13.90
2023-07-18T05:54:07.255Z,13.90
2023-07-18T05:56:35.544Z,14.00
2023-07-18T05:59:06.475Z,14.00
2023-07-18T06:01:34.778Z,14.00
2023-07-18T06:04:03.151Z,14.00
2023-07-18T06:06:32.223Z,14.10
2023-07-18T06:09:01.601Z,14.10
2023-07-18T06:11:29.705Z,14.10
2023-07-18T06:13:57.706Z,14.20
2023-07-18T06:16:25.797Z,14.20
2023-07-18T06:18:53.823Z,14.30
2023-07-18T06:21:23.021Z,14.30
2023-07-18T06:23:52.046Z,14.30
2023-07-18T06:26:26.037Z,14.40
2023-07-18T06:28:55.080Z,14.40
2023-07-18T06:31:24.110Z,14.50
2023-07-18T06:33:52.258Z,14.60
2023-07-18T06:36:20.577Z,14.60
2023-07-18T06:38:48.656Z,14.70
2023-07-18T06:41:17.039Z,14.80
2023-07-18T06:43:46.565Z,14.90
2023-07-18T06:46:15.250Z,14.90
2023-07-18T06:48:43.690Z,15.00
2023-07-18T06:51:11.754Z,15.10
2023-07-18T06:53:39.766Z,15.20
2023-07-18T06:56:07.781Z,15.30
2023-07-18T06:58:35.765Z,15.40
2023-07-18T07:01:05.175Z,15.40
2023-07-18T07:03:33.652Z,15.50
2023-07-18T07:06:01.827Z,15.60
2023-07-18T07:08:30.690Z,15.70
2023-07-18T07:11:04.987Z,15.80
2023-07-18T07:13:33.082Z,15.80
2023-07-18T07:16:01.631Z,15.90
2023-07-18T07:18:31.029Z,16.00
2023-07-18T07:20:59.031Z,16.00
2023-07-18T07:23:27.179Z,16.10
2023-07-18T07:25:55.643Z,16.20
2023-07-18T07:28:25.202Z,16.20
2023-07-18T07:30:53.757Z,16.30
2023-07-18T07:33:21.818Z,16.30
2023-07-18T07:35:51.200Z,16.40
2023-07-18T07:38:19.934Z,16.50
2023-07-18T07:40:48.016Z,16.60
2023-07-18T07:43:16.019Z,16.60
2023-07-18T07:45:44.123Z,16.70
2023-07-18T07:48:12.154Z,16.70
2023-07-18T07:50:40.224Z,16.80
2023-07-18T07:53:09.745Z,16.90
2023-07-18T07:55:39.083Z,16.90
2023-07-18T07:58:09.361Z,17.00
2023-07-18T08:00:37.351Z,17.00
2023-07-18T08:03:05.465Z,17.00
2023-07-18T08:05:33.554Z,17.00
2023-07-18T08:08:02.364Z,17.00
2023-07-18T08:10:31.765Z,17.10
2023-07-18T08:12:59.781Z,17.10
2023-07-18T08:15:28.211Z,17.10
2023-07-18T08:17:56.885Z,17.20
2023-07-18T08:20:25.243Z,17.20
2023-07-18T08:22:53.338Z,17.30
2023-07-18T08:25:21.464Z,17.30
2023-07-18T08:27:50.872Z,17.40
2023-07-18T08:30:20.977Z,17.40
2023-07-18T08:32:49.170Z,17.40
2023-07-18T08:35:17.258Z,17.50
2023-07-18T08:37:45.316Z,17.60
2023-07-18T08:40:13.905Z,17.60
2023-07-18T08:42:41.905Z,17.60
2023-07-18T08:45:15.080Z,17.60
2023-07-18T08:47:43.732Z,17.60
2023-07-18T08:50:12.288Z,17.70
2023-07-18T08:52:40.717Z,17.70
2023-07-18T08:55:09.608Z,17.70
2023-07-18T08:57:37.755Z,17.80
2023-07-18T09:00:06.650Z,17.90
2023-07-18T09:02:36.095Z,18.00
2023-07-18T09:05:04.231Z,18.10
2023-07-18T09:07:36.477Z,18.10
2023-07-18T09:10:05.231Z,18.20
2023-07-18T09:12:36.727Z,18.20
2023-07-18T09:15:05.033Z,18.30
2023-07-18T09:17:34.072Z,18.40
2023-07-18T09:20:09.152Z,18.50
2023-07-18T09:22:37.411Z,18.50
2023-07-18T09:25:05.767Z,18.60
2023-07-18T09:27:37.387Z,18.60
2023-07-18T09:30:08.758Z,18.60
2023-07-18T09:32:37.891Z,18.70
2023-07-18T09:35:08.431Z,18.70
2023-07-18T09:37:46.203Z,18.70
2023-07-18T09:40:15.925Z,18.70
2023-07-18T09:42:47.024Z,18.80
2023-07-18T09:45:16.492Z,18.80
2023-07-18T09:47:45.513Z,18.80
2023-07-18T09:50:15.632Z,18.90
2023-07-18T09:52:44.789Z,19.00
2023-07-18T09:55:15.293Z,19.00
2023-07-18T09:57:43.749Z,19.10
2023-07-18T10:00:13.355Z,19.20
2023-07-18T10:02:41.752Z,19.20
2023-07-18T10:05:11.666Z,19.30
2023-07-18T10:07:41.229Z,19.30
2023-07-18T10:10:10.305Z,19.40
2023-07-18T10:12:38.619Z,19.40
2023-07-18T10:15:06.984Z,19.30
2023-07-18T10:17:36.505Z,19.40
2023-07-18T10:20:07.929Z,19.50
2023-07-18T10:22:35.950Z,19.60
2023-07-18T10:25:08.624Z,19.70
2023-07-18T10:27:37.119Z,19.80
2023-07-18T10:30:06.282Z,19.80
2023-07-18T10:32:34.994Z,19.80
2023-07-18T10:35:08.062Z,19.80
2023-07-18T10:37:37.532Z,19.80
2023-07-18T10:40:07.144Z,19.80
2023-07-18T10:42:36.804Z,19.80
2023-07-18T10:45:06.120Z,19.80
2023-07-18T10:47:36.336Z,19.80
2023-07-18T10:50:05.300Z,19.80
2023-07-18T10:52:34.009Z,19.80
2023-07-18T10:55:03.791Z,19.80
2023-07-18T10:57:33.700Z,19.80
2023-07-18T11:00:04.690Z,19.80
2023-07-18T11:02:37.208Z,19.80
2023-07-18T11:05:08.284Z,19.80
2023-07-18T11:07:36.539Z,19.80
2023-07-18T11:10:05.329Z,19.90
2023-07-18T11:12:33.373Z,19.90
2023-07-18T11:15:01.384Z,19.90
2023-07-18T11:17:32.390Z,19.90
2023-07-18T11:20:00.651Z,19.90
2023-07-18T11:22:29.525Z,19.90
2023-07-18T11:24:57.831Z,20.60
2023-07-18T11:27:27.189Z,19.90
2023-07-18T11:29:58.648Z,20.00
2023-07-18T11:32:36.576Z,20.00
2023-07-18T11:35:07.528Z,20.00
2023-07-18T11:37:41.596Z,20.00
2023-07-18T11:40:10.764Z,20.00
2023-07-18T11:42:45.308Z,20.10
2023-07-18T11:45:13.804Z,20.10
2023-07-18T11:47:46.709Z,20.20
2023-07-18T11:50:15.261Z,20.20
2023-07-18T11:52:43.688Z,20.20
2023-07-18T11:55:11.775Z,20.20
2023-07-18T11:57:39.878Z,20.30
2023-07-18T12:00:09.836Z,20.40
2023-07-18T12:02:37.883Z,20.40
2023-07-18T12:05:08.327Z,20.50
2023-07-18T12:07:36.502Z,20.60
2023-07-18T12:10:07.949Z,20.80
2023-07-18T12:12:36.167Z,20.90
2023-07-18T12:15:04.510Z,21.00
2023-07-18T12:17:32.691Z,21.10
2023-07-18T12:20:00.744Z,21.20
2023-07-18T12:22:30.243Z,21.20
2023-07-18T12:24:58.304Z,21.30
2023-07-18T12:27:26.395Z,21.40
2023-07-18T12:29:54.453Z,21.50
2023-07-18T12:32:32.948Z,21.60
2023-07-18T12:35:01.132Z,21.60
2023-07-18T12:37:30.976Z,21.60
2023-07-18T12:39:59.032Z,21.60
2023-07-18T12:42:27.216Z,21.50
2023-07-18T12:44:55.210Z,21.50
2023-07-18T12:47:23.235Z,21.40
2023-07-18T12:52:22.242Z,21.30
2023-07-18T12:54:51.695Z,21.30
2023-07-18T12:57:19.803Z,21.30
2023-07-18T12:59:48.172Z,21.30
2023-07-18T13:02:16.243Z,21.40
2023-07-18T13:04:44.268Z,21.50
2023-07-18T13:07:12.348Z,21.60
2023-07-18T13:09:40.564Z,21.70
2023-07-18T13:12:10.592Z,21.80
2023-07-18T13:14:38.557Z,22.00
2023-07-18T13:17:06.994Z,22.00
2023-07-18T13:19:35.283Z,22.10
2023-07-18T13:22:03.408Z,22.10
2023-07-18T13:24:31.384Z,22.10
2023-07-18T13:26:59.464Z,22.00
2023-07-18T13:29:28.885Z,22.00
2023-07-18T13:31:56.959Z,21.90
2023-07-18T13:34:25.049Z,21.90
2023-07-18T13:36:53.059Z,21.80
2023-07-18T13:39:21.721Z,21.80
2023-07-18T13:41:49.729Z,21.70
2023-07-18T13:44:17.739Z,21.70
2023-07-18T13:46:47.127Z,21.70
2023-07-18T13:49:15.588Z,21.60
2023-07-18T13:51:43.641Z,21.50
2023-07-18T13:54:11.658Z,21.50
2023-07-18T13:56:39.704Z,21.50
2023-07-18T13:59:07.785Z,21.40
2023-07-18T14:01:35.833Z,21.40
2023-07-18T14:04:05.556Z,21.40
2023-07-18T14:06:33.901Z,21.30
2023-07-18T14:09:01.971Z,21.30
2023-07-18T14:11:30.216Z,21.20
2023-07-18T14:13:58.293Z,21.20
2023-07-18T14:16:26.459Z,21.20
2023-07-18T14:18:57.381Z,21.20
2023-07-18T14:21:27.171Z,21.10
2023-07-18T14:23:55.187Z,21.10
2023-07-18T14:26:23.304Z,21.10
2023-07-18T14:28:51.376Z,21.00
2023-07-18T14:31:19.438Z,21.00
2023-07-18T14:33:59.888Z,20.90
2023-07-18T14:36:36.189Z,20.70
2023-07-18T14:39:04.301Z,20.80
2023-07-18T14:41:32.343Z,20.80
2023-07-18T14:44:00.363Z,20.80
2023-07-18T14:46:28.384Z,20.80
2023-07-18T14:48:56.416Z,20.80
2023-07-18T14:51:24.403Z,20.80
2023-07-18T14:53:54.070Z,20.90
2023-07-18T14:56:22.236Z,21.00
2023-07-18T14:58:50.367Z,21.00
2023-07-18T15:01:18.738Z,21.00
2023-07-18T15:03:46.803Z,21.00
2023-07-18T15:06:14.804Z,21.00
2023-07-18T15:08:42.991Z,21.10
2023-07-18T15:11:12.437Z,21.10
2023-07-18T15:13:40.586Z,21.10
2023-07-18T15:16:08.600Z,21.20
2023-07-18T15:18:37.283Z,21.30
2023-07-18T15:21:05.929Z,21.50
2023-07-18T15:23:37.937Z,21.80
2023-07-18T15:26:05.909Z,22.10
2023-07-18T15:28:35.771Z,22.60
2023-07-18T15:31:04.361Z,23.10
2023-07-18T15:33:34.791Z,23.50
2023-07-18T15:36:02.838Z,23.90
2023-07-18T15:38:30.866Z,24.10
2023-07-18T15:40:58.887Z,24.30
2023-07-18T15:43:26.939Z,24.50
2023-07-18T15:45:58.103Z,24.90
2023-07-18T15:48:27.865Z,25.20
2023-07-18T15:50:55.861Z,25.30
2023-07-18T15:53:23.871Z,25.10
2023-07-18T15:55:52.898Z,25.20
2023-07-18T15:58:21.110Z,25.30
2023-07-18T16:00:50.299Z,25.30
2023-07-18T16:03:19.870Z,25.50
2023-07-18T16:05:48.009Z,25.70
2023-07-18T16:08:16.097Z,25.80
2023-07-18T16:10:44.206Z,25.70
2023-07-18T16:13:12.196Z,25.70
2023-07-18T16:15:40.252Z,25.60
2023-07-18T16:18:08.374Z,25.50
2023-07-18T16:20:37.902Z,25.40
2023-07-18T16:23:06.430Z,25.50
2023-07-18T16:25:34.481Z,25.40
2023-07-18T16:28:02.456Z,25.30
2023-07-18T16:30:30.441Z,25.20
2023-07-18T16:32:58.590Z,25.20
2023-07-18T16:35:26.652Z,25.10
2023-07-18T16:37:56.029Z,25.00
2023-07-18T16:40:24.021Z,25.00
2023-07-18T16:42:52.793Z,24.90
2023-07-18T16:45:20.983Z,24.80
2023-07-18T16:47:49.280Z,24.60
2023-07-18T16:50:17.904Z,24.50
2023-07-18T16:52:46.390Z,24.20
2023-07-18T16:55:15.947Z,24.20
2023-07-18T16:57:43.964Z,24.00
2023-07-18T17:00:13.060Z,23.90
2023-07-18T17:02:41.156Z,23.80
2023-07-18T17:05:09.366Z,23.70
2023-07-18T17:07:37.346Z,23.50
2023-07-18T17:10:05.915Z,23.40
2023-07-18T17:12:35.365Z,23.30
2023-07-18T17:15:03.673Z,23.20
2023-07-18T17:17:32.000Z,23.10
2023-07-18T17:20:07.432Z,23.00
2023-07-18T17:22:36.813Z,23.00
2023-07-18T17:25:05.043Z,22.80
2023-07-18T17:27:33.483Z,22.80
2023-07-18T17:30:05.875Z,22.70
2023-07-18T17:32:34.050Z,22.70
2023-07-18T17:35:02.322Z,22.60
2023-07-18T17:37:30.381Z,22.50
2023-07-18T17:39:58.523Z,22.40
2023-07-18T17:42:26.535Z,22.40
2023-07-18T17:44:56.656Z,22.30
2023-07-18T17:47:26.117Z,22.30
2023-07-18T17:49:54.361Z,22.20
2023-07-18T17:52:22.547Z,22.10
2023-07-18T17:54:50.572Z,22.10
2023-07-18T17:57:18.643Z,22.00
2023-07-18T17:59:46.701Z,21.90
2023-07-18T18:02:14.872Z,21.80
2023-07-18T18:04:44.349Z,21.80
2023-07-18T18:07:13.601Z,21.70
2023-07-18T18:09:42.679Z,21.70
2023-07-18T18:12:10.702Z,21.60
2023-07-18T18:14:39.084Z,21.50
2023-07-18T18:17:07.578Z,21.50
2023-07-18T18:19:35.864Z,21.40
2023-07-18T18:22:05.610Z,21.40
2023-07-18T18:24:33.853Z,21.30
2023-07-18T18:27:01.924Z,21.20
2023-07-18T18:29:31.718Z,21.20
2023-07-18T18:31:59.740Z,21.10
2023-07-18T18:34:29.119Z,21.00
2023-07-18T18:36:57.162Z,21.00
2023-07-18T18:39:28.890Z,21.00
2023-07-18T18:41:58.779Z,20.90
2023-07-18T18:44:26.835Z,21.00
2023-07-18T18:46:54.916Z,20.80
2023-07-18T18:49:27.237Z,20.90
2023-07-18T18:51:55.931Z,20.80
2023-07-18T18:54:24.108Z,20.70
2023-07-18T18:56:54.104Z,20.70
2023-07-18T18:59:22.301Z,20.70
2023-07-18T19:01:51.569Z,20.60
2023-07-18T19:04:20.198Z,20.60
2023-07-18T19:06:48.295Z,20.50
2023-07-18T19:09:16.363Z,20.50
2023-07-18T19:11:44.385Z,20.50
2023-07-18T19:14:13.803Z,20.40
2023-07-18T19:16:41.886Z,20.40
2023-07-18T19:19:11.657Z,20.40
2023-07-18T19:21:42.552Z,20.30
2023-07-18T19:24:10.703Z,20.30
2023-07-18T19:26:38.922Z,20.20
2023-07-18T19:29:07.914Z,20.20
2023-07-18T19:31:37.418Z,20.20
2023-07-18T19:34:05.505Z,20.20
2023-07-18T19:36:33.550Z,20.10
2023-07-18T19:39:01.755Z,20.10
2023-07-18T19:41:29.833Z,20.10
2023-07-18T19:43:57.886Z,20.10
2023-07-18T19:46:25.944Z,20.00
2023-07-18T19:48:55.386Z,20.00
2023-07-18T19:51:23.503Z,19.90
2023-07-18T19:53:51.560Z,19.90
2023-07-18T19:56:19.640Z,19.90
2023-07-18T19:58:47.706Z,19.90
2023-07-18T20:01:16.131Z,19.80
2023-07-18T20:03:57.135Z,19.80
2023-07-18T20:06:29.882Z,19.70
2023-07-18T20:08:58.031Z,19.70
2023-07-18T20:11:26.192Z,19.70
2023-07-18T20:13:54.403Z,19.70
2023-07-18T20:16:22.668Z,19.60
2023-07-18T20:18:54.883Z,19.60
2023-07-18T20:21:26.950Z,19.60
2023-07-18T20:23:56.986Z,19.50
2023-07-18T20:26:25.219Z,19.50
2023-07-18T20:28:53.333Z,19.50
2023-07-18T20:31:21.604Z,19.50
2023-07-18T20:33:49.950Z,19.40
2023-07-18T20:36:18.115Z,19.40
2023-07-18T20:38:46.915Z,19.40
2023-07-18T20:41:16.417Z,19.40
2023-07-18T20:43:44.553Z,19.30
2023-07-18T20:46:14.516Z,19.40
2023-07-18T20:48:42.569Z,19.40
2023-07-18T20:51:10.585Z,19.30
2023-07-18T20:53:38.611Z,19.30
2023-07-18T20:56:07.064Z,19.30
2023-07-18T20:58:36.444Z,19.30
2023-07-18T21:01:04.503Z,19.30
2023-07-18T21:03:33.056Z,19.20
2023-07-18T21:06:01.077Z,19.20
2023-07-18T21:08:29.064Z,19.20
2023-07-18T21:10:57.223Z,19.10
2023-07-18T21:13:25.375Z,19.10
2023-07-18T21:15:54.723Z,19.10
2023-07-18T21:18:22.801Z,19.10
2023-07-18T21:20:50.812Z,19.10
2023-07-18T21:23:19.683Z,19.00
2023-07-18T21:25:47.748Z,19.00
2023-07-18T21:28:15.810Z,19.00
2023-07-18T21:30:43.780Z,19.00
2023-07-18T21:33:13.146Z,19.00
2023-07-18T21:35:41.280Z,19.00
2023-07-18T21:38:09.338Z,19.00
2023-07-18T21:40:37.450Z,18.90
2023-07-18T21:43:05.553Z,18.90
2023-07-18T21:45:33.905Z,18.90
2023-07-18T21:48:02.065Z,18.90
2023-07-18T21:50:31.464Z,18.90
2023-07-18T21:52:59.686Z,18.80
2023-07-18T21:55:27.640Z,18.80
2023-07-18T21:57:55.661Z,18.80
2023-07-18T22:00:23.669Z,18.70
2023-07-18T22:02:51.876Z,18.70
2023-07-18T22:05:20.066Z,18.70
2023-07-18T22:07:49.521Z,18.70
2023-07-18T22:10:17.518Z,18.70
2023-07-18T22:12:45.657Z,18.60
2023-07-18T22:15:13.663Z,18.60
2023-07-18T22:17:42.753Z,18.60
2023-07-18T22:20:11.270Z,18.60
2023-07-18T22:22:40.508Z,18.60
2023-07-18T22:25:10.495Z,18.60
2023-07-18T22:27:38.513Z,18.60
2023-07-18T22:30:07.282Z,18.60
2023-07-18T22:32:35.330Z,18.50
2023-07-18T22:35:04.030Z,18.50
2023-07-18T22:37:32.573Z,18.50
2023-07-18T22:40:00.709Z,18.50
2023-07-18T22:42:30.288Z,18.50
2023-07-18T22:44:58.739Z,18.50
2023-07-18T22:47:26.860Z,18.50
2023-07-18T22:49:55.125Z,18.40
2023-07-18T22:52:23.151Z,18.40
2023-07-18T22:54:51.759Z,18.40
2023-07-18T22:57:20.014Z,18.40
2023-07-18T22:59:49.496Z,18.40
2023-07-18T23:02:17.642Z,18.40
2023-07-18T23:04:46.045Z,18.40
2023-07-18T23:07:14.965Z,18.40
2023-07-18T23:09:43.041Z,18.40
2023-07-18T23:12:12.374Z,18.40
2023-07-18T23:14:40.533Z,18.30
2023-07-18T23:17:10.226Z,18.30
2023-07-18T23:19:38.216Z,18.30
2023-07-18T23:22:07.604Z,18.30
2023-07-18T23:24:35.714Z,18.20
2023-07-18T23:27:03.811Z,18.20
2023-07-18T23:29:34.631Z,18.20
2023-07-18T23:32:02.708Z,18.20
2023-07-18T23:34:32.118Z,18.20
2023-07-18T23:37:00.173Z,18.10
2023-07-18T23:39:28.218Z,18.10
2023-07-18T23:41:56.206Z,18.10
2023-07-18T23:44:24.235Z,18.10
2023-07-18T23:46:52.520Z,18.10
2023-07-18T23:49:21.009Z,18.10
2023-07-18T23:51:50.390Z,18.10
2023-07-18T23:54:18.436Z,18.10
2023-07-18T23:56:46.468Z,18.10
2023-07-18T23:59:14.500Z,18.10
